sensor_id;sensor_type;location;lat;lon;timestamp;P1;durP1;ratioP1;P2;durP2;ratioP2
7162;SDS011;3623;47.098;15.446;2023-06-19T00:00:04;11.33;;;10.33;;
7162;SDS011;3623;47.098;15.446;2023-06-19T00:02:38;11.80;;;10.77;;
7162;SDS011;3623;47.098;15.446;2023-06-19T00:05:05;10.80;;;9.90;;
7162;SDS011;3623;47.098;15.446;2023-06-19T00:07:33;11.73;;;10.33;;
7162;SDS011;3623;47.098;15.446;2023-06-19T00:10:00;11.83;;;10.83;;
7162;SDS011;3623;47.098;15.446;2023-06-19T00:12:28;12.13;;;11.13;;
7162;SDS011;3623;47.098;15.446;2023-06-19T00:14:56;12.23;;;11.13;;
7162;SDS011;3623;47.098;15.446;2023-06-19T00:17:23;12.10;;;11.00;;
7162;SDS011;3623;47.098;15.446;2023-06-19T00:19:51;12.60;;;11.40;;
7162;SDS011;3623;47.098;15.446;2023-06-19T00:22:18;12.90;;;11.60;;
7162;SDS011;3623;47.098;15.446;2023-06-19T00:24:46;13.23;;;10.23;;
7162;SDS011;3623;47.098;15.446;2023-06-19T00:27:13;13.93;;;11.27;;
7162;SDS011;3623;47.098;15.446;2023-06-19T00:29:41;11.90;;;10.80;;
7162;SDS011;3623;47.098;15.446;2023-06-19T00:32:08;11.83;;;10.63;;
7162;SDS011;3623;47.098;15.446;2023-06-19T00:34:35;12.73;;;11.33;;
7162;SDS011;3623;47.098;15.446;2023-06-19T00:37:03;12.43;;;11.33;;
7162;SDS011;3623;47.098;15.446;2023-06-19T00:39:31;13.03;;;11.90;;
7162;SDS011;3623;47.098;15.446;2023-06-19T00:41:58;12.90;;;11.40;;
7162;SDS011;3623;47.098;15.446;2023-06-19T00:44:25;11.60;;;10.50;;
7162;SDS011;3623;47.098;15.446;2023-06-19T00:46:55;13.33;;;11.87;;
7162;SDS011;3623;47.098;15.446;2023-06-19T00:49:24;13.60;;;12.23;;
7162;SDS011;3623;47.098;15.446;2023-06-19T00:51:51;11.70;;;10.67;;
7162;SDS011;3623;47.098;15.446;2023-06-19T00:54:19;11.90;;;10.80;;
7162;SDS011;3623;47.098;15.446;2023-06-19T00:56:46;12.47;;;11.27;;
7162;SDS011;3623;47.098;15.446;2023-06-19T00:59:14;12.77;;;11.60;;
7162;SDS011;3623;47.098;15.446;2023-06-19T01:01:42;12.67;;;11.57;;
7162;SDS011;3623;47.098;15.446;2023-06-19T01:04:11;11.53;;;10.73;;
7162;SDS011;3623;47.098;15.446;2023-06-19T01:06:41;13.23;;;11.87;;
7162;SDS011;3623;47.098;15.446;2023-06-19T01:09:13;10.90;;;10.00;;
7162;SDS011;3623;47.098;15.446;2023-06-19T01:11:44;12.47;;;11.37;;
7162;SDS011;3623;47.098;15.446;2023-06-19T01:14:16;13.97;;;12.60;;
7162;SDS011;3623;47.098;15.446;2023-06-19T01:16:46;14.73;;;12.17;;
7162;SDS011;3623;47.098;15.446;2023-06-19T01:19:20;11.80;;;10.80;;
7162;SDS011;3623;47.098;15.446;2023-06-19T01:21:48;11.40;;;10.40;;
7162;SDS011;3623;47.098;15.446;2023-06-19T01:24:17;12.23;;;11.07;;
7162;SDS011;3623;47.098;15.446;2023-06-19T01:26:44;12.03;;;10.93;;
7162;SDS011;3623;47.098;15.446;2023-06-19T01:29:12;12.73;;;11.70;;
7162;SDS011;3623;47.098;15.446;2023-06-19T01:31:43;11.50;;;10.40;;
7162;SDS011;3623;47.098;15.446;2023-06-19T01:34:15;11.73;;;10.83;;
7162;SDS011;3623;47.098;15.446;2023-06-19T01:36:45;13.23;;;12.03;;
7162;SDS011;3623;47.098;15.446;2023-06-19T01:39:14;11.90;;;10.80;;
7162;SDS011;3623;47.098;15.446;2023-06-19T01:41:44;12.70;;;11.60;;
7162;SDS011;3623;47.098;15.446;2023-06-19T01:44:12;12.33;;;11.40;;
7162;SDS011;3623;47.098;15.446;2023-06-19T01:46:39;13.80;;;12.57;;
7162;SDS011;3623;47.098;15.446;2023-06-19T01:49:07;11.77;;;10.77;;
7162;SDS011;3623;47.098;15.446;2023-06-19T01:51:35;12.07;;;11.07;;
7162;SDS011;3623;47.098;15.446;2023-06-19T01:54:02;13.20;;;11.80;;
7162;SDS011;3623;47.098;15.446;2023-06-19T01:56:32;13.83;;;12.47;;
7162;SDS011;3623;47.098;15.446;2023-06-19T01:58:59;14.30;;;12.93;;
7162;SDS011;3623;47.098;15.446;2023-06-19T02:01:26;13.73;;;12.33;;
7162;SDS011;3623;47.098;15.446;2023-06-19T02:03:53;12.50;;;11.40;;
7162;SDS011;3623;47.098;15.446;2023-06-19T02:06:20;12.90;;;11.73;;
7162;SDS011;3623;47.098;15.446;2023-06-19T02:08:47;14.57;;;12.90;;
7162;SDS011;3623;47.098;15.446;2023-06-19T02:11:15;13.23;;;12.03;;
7162;SDS011;3623;47.098;15.446;2023-06-19T02:13:43;12.70;;;11.40;;
7162;SDS011;3623;47.098;15.446;2023-06-19T02:16:10;13.30;;;12.00;;
7162;SDS011;3623;47.098;15.446;2023-06-19T02:18:37;13.80;;;12.50;;
7162;SDS011;3623;47.098;15.446;2023-06-19T02:21:04;14.17;;;12.80;;
7162;SDS011;3623;47.098;15.446;2023-06-19T02:23:31;14.70;;;13.40;;
7162;SDS011;3623;47.098;15.446;2023-06-19T02:25:58;13.23;;;12.13;;
7162;SDS011;3623;47.098;15.446;2023-06-19T02:28:25;13.37;;;12.17;;
7162;SDS011;3623;47.098;15.446;2023-06-19T02:30:54;12.97;;;11.87;;
7162;SDS011;3623;47.098;15.446;2023-06-19T02:33:21;13.47;;;11.60;;
7162;SDS011;3623;47.098;15.446;2023-06-19T02:35:49;18.30;;;14.33;;
7162;SDS011;3623;47.098;15.446;2023-06-19T02:38:16;14.13;;;12.83;;
7162;SDS011;3623;47.098;15.446;2023-06-19T02:40:46;14.87;;;13.40;;
7162;SDS011;3623;47.098;15.446;2023-06-19T02:43:13;13.70;;;12.43;;
7162;SDS011;3623;47.098;15.446;2023-06-19T02:45:40;15.40;;;12.33;;
7162;SDS011;3623;47.098;15.446;2023-06-19T02:48:09;14.13;;;12.80;;
7162;SDS011;3623;47.098;15.446;2023-06-19T02:50:36;14.70;;;12.10;;
7162;SDS011;3623;47.098;15.446;2023-06-19T02:53:03;14.50;;;13.00;;
7162;SDS011;3623;47.098;15.446;2023-06-19T02:55:31;15.00;;;13.77;;
7162;SDS011;3623;47.098;15.446;2023-06-19T02:57:58;15.00;;;13.70;;
7162;SDS011;3623;47.098;15.446;2023-06-19T03:00:25;14.73;;;13.40;;
7162;SDS011;3623;47.098;15.446;2023-06-19T03:02:53;13.50;;;12.17;;
7162;SDS011;3623;47.098;15.446;2023-06-19T03:05:22;14.50;;;13.20;;
7162;SDS011;3623;47.098;15.446;2023-06-19T03:07:49;16.20;;;14.67;;
7162;SDS011;3623;47.098;15.446;2023-06-19T03:10:16;18.20;;;14.50;;
7162;SDS011;3623;47.098;15.446;2023-06-19T03:12:44;14.60;;;13.10;;
7162;SDS011;3623;47.098;15.446;2023-06-19T03:15:11;15.80;;;14.33;;
7162;SDS011;3623;47.098;15.446;2023-06-19T03:17:38;15.07;;;13.50;;
7162;SDS011;3623;47.098;15.446;2023-06-19T03:20:06;14.90;;;13.60;;
7162;SDS011;3623;47.098;15.446;2023-06-19T03:22:38;15.10;;;13.70;;
7162;SDS011;3623;47.098;15.446;2023-06-19T03:25:06;15.33;;;13.93;;
7162;SDS011;3623;47.098;15.446;2023-06-19T03:27:33;13.90;;;12.70;;
7162;SDS011;3623;47.098;15.446;2023-06-19T03:30:01;15.40;;;13.90;;
7162;SDS011;3623;47.098;15.446;2023-06-19T03:32:31;14.10;;;12.60;;
7162;SDS011;3623;47.098;15.446;2023-06-19T03:34:58;14.90;;;13.40;;
7162;SDS011;3623;47.098;15.446;2023-06-19T03:37:25;13.73;;;12.53;;
7162;SDS011;3623;47.098;15.446;2023-06-19T03:39:54;15.33;;;13.93;;
7162;SDS011;3623;47.098;15.446;2023-06-19T03:42:21;14.17;;;12.80;;
7162;SDS011;3623;47.098;15.446;2023-06-19T03:44:48;15.03;;;13.60;;
7162;SDS011;3623;47.098;15.446;2023-06-19T03:47:15;14.13;;;12.53;;
7162;SDS011;3623;47.098;15.446;2023-06-19T03:49:43;15.37;;;13.83;;
7162;SDS011;3623;47.098;15.446;2023-06-19T03:52:10;14.73;;;13.40;;
7162;SDS011;3623;47.098;15.446;2023-06-19T03:54:37;15.03;;;13.10;;
7162;SDS011;3623;47.098;15.446;2023-06-19T03:57:05;14.90;;;13.40;;
7162;SDS011;3623;47.098;15.446;2023-06-19T03:59:33;16.13;;;14.63;;
7162;SDS011;3623;47.098;15.446;2023-06-19T04:02:00;14.47;;;13.17;;
7162;SDS011;3623;47.098;15.446;2023-06-19T04:04:27;14.27;;;12.90;;
7162;SDS011;3623;47.098;15.446;2023-06-19T04:06:54;13.87;;;12.47;;
7162;SDS011;3623;47.098;15.446;2023-06-19T04:09:22;15.20;;;13.90;;
7162;SDS011;3623;47.098;15.446;2023-06-19T04:11:49;15.33;;;14.03;;
7162;SDS011;3623;47.098;15.446;2023-06-19T04:14:18;14.80;;;13.40;;
7162;SDS011;3623;47.098;15.446;2023-06-19T04:16:45;14.53;;;13.23;;
7162;SDS011;3623;47.098;15.446;2023-06-19T04:19:12;14.70;;;13.30;;
7162;SDS011;3623;47.098;15.446;2023-06-19T04:21:39;13.83;;;12.43;;
7162;SDS011;3623;47.098;15.446;2023-06-19T04:24:06;15.10;;;13.70;;
7162;SDS011;3623;47.098;15.446;2023-06-19T04:26:34;15.20;;;13.67;;
7162;SDS011;3623;47.098;15.446;2023-06-19T04:29:01;16.73;;;13.70;;
7162;SDS011;3623;47.098;15.446;2023-06-19T04:31:31;14.83;;;13.37;;
7162;SDS011;3623;47.098;15.446;2023-06-19T04:34:00;14.93;;;13.67;;
7162;SDS011;3623;47.098;15.446;2023-06-19T04:36:29;14.90;;;13.37;;
7162;SDS011;3623;47.098;15.446;2023-06-19T04:38:57;15.73;;;14.27;;
7162;SDS011;3623;47.098;15.446;2023-06-19T04:41:26;13.90;;;12.70;;
7162;SDS011;3623;47.098;15.446;2023-06-19T04:43:53;14.70;;;13.50;;
7162;SDS011;3623;47.098;15.446;2023-06-19T04:46:20;13.60;;;12.50;;
7162;SDS011;3623;47.098;15.446;2023-06-19T04:48:48;13.97;;;12.67;;
7162;SDS011;3623;47.098;15.446;2023-06-19T04:51:16;14.93;;;12.93;;
7162;SDS011;3623;47.098;15.446;2023-06-19T04:53:45;12.60;;;11.40;;
7162;SDS011;3623;47.098;15.446;2023-06-19T04:56:12;13.10;;;11.90;;
7162;SDS011;3623;47.098;15.446;2023-06-19T04:58:40;15.70;;;13.30;;
7162;SDS011;3623;47.098;15.446;2023-06-19T05:01:11;16.70;;;15.10;;
7162;SDS011;3623;47.098;15.446;2023-06-19T05:03:38;14.70;;;13.20;;
7162;SDS011;3623;47.098;15.446;2023-06-19T05:06:07;14.03;;;12.83;;
7162;SDS011;3623;47.098;15.446;2023-06-19T05:08:34;13.60;;;12.37;;
7162;SDS011;3623;47.098;15.446;2023-06-19T05:11:01;13.13;;;11.93;;
7162;SDS011;3623;47.098;15.446;2023-06-19T05:13:28;15.40;;;13.80;;
7162;SDS011;3623;47.098;15.446;2023-06-19T05:15:55;13.87;;;12.67;;
7162;SDS011;3623;47.098;15.446;2023-06-19T05:18:23;13.00;;;11.77;;
7162;SDS011;3623;47.098;15.446;2023-06-19T05:20:50;13.80;;;12.50;;
7162;SDS011;3623;47.098;15.446;2023-06-19T05:23:18;14.80;;;13.10;;
7162;SDS011;3623;47.098;15.446;2023-06-19T05:25:45;13.13;;;11.83;;
7162;SDS011;3623;47.098;15.446;2023-06-19T05:28:12;13.53;;;12.33;;
7162;SDS011;3623;47.098;15.446;2023-06-19T05:30:39;14.17;;;12.87;;
7162;SDS011;3623;47.098;15.446;2023-06-19T05:33:07;15.33;;;13.97;;
7162;SDS011;3623;47.098;15.446;2023-06-19T05:35:34;14.90;;;13.50;;
7162;SDS011;3623;47.098;15.446;2023-06-19T05:38:01;17.60;;;13.87;;
7162;SDS011;3623;47.098;15.446;2023-06-19T05:40:30;14.10;;;12.80;;
7162;SDS011;3623;47.098;15.446;2023-06-19T05:42:57;13.53;;;12.43;;
7162;SDS011;3623;47.098;15.446;2023-06-19T05:45:24;17.10;;;12.03;;
7162;SDS011;3623;47.098;15.446;2023-06-19T05:47:51;15.10;;;13.60;;
7162;SDS011;3623;47.098;15.446;2023-06-19T05:50:18;15.47;;;13.37;;
7162;SDS011;3623;47.098;15.446;2023-06-19T05:52:45;17.13;;;15.53;;
7162;SDS011;3623;47.098;15.446;2023-06-19T05:55:12;18.60;;;13.73;;
7162;SDS011;3623;47.098;15.446;2023-06-19T05:57:40;14.60;;;13.17;;
7162;SDS011;3623;47.098;15.446;2023-06-19T06:00:09;14.37;;;13.00;;
7162;SDS011;3623;47.098;15.446;2023-06-19T06:02:39;14.73;;;13.33;;
7162;SDS011;3623;47.098;15.446;2023-06-19T06:05:07;15.30;;;12.30;;
7162;SDS011;3623;47.098;15.446;2023-06-19T06:07:35;14.50;;;12.40;;
7162;SDS011;3623;47.098;15.446;2023-06-19T06:10:02;15.00;;;13.60;;
7162;SDS011;3623;47.098;15.446;2023-06-19T06:12:30;13.60;;;12.27;;
7162;SDS011;3623;47.098;15.446;2023-06-19T06:15:02;14.57;;;13.27;;
7162;SDS011;3623;47.098;15.446;2023-06-19T06:17:30;17.90;;;13.23;;
7162;SDS011;3623;47.098;15.446;2023-06-19T06:19:57;15.07;;;13.53;;
7162;SDS011;3623;47.098;15.446;2023-06-19T06:22:25;15.17;;;13.23;;
7162;SDS011;3623;47.098;15.446;2023-06-19T06:24:52;14.20;;;12.77;;
7162;SDS011;3623;47.098;15.446;2023-06-19T06:27:19;22.10;;;14.93;;
7162;SDS011;3623;47.098;15.446;2023-06-19T06:29:46;13.60;;;12.30;;
7162;SDS011;3623;47.098;15.446;2023-06-19T06:32:15;14.50;;;13.20;;
7162;SDS011;3623;47.098;15.446;2023-06-19T06:34:42;17.67;;;14.40;;
7162;SDS011;3623;47.098;15.446;2023-06-19T06:37:09;14.00;;;12.83;;
7162;SDS011;3623;47.098;15.446;2023-06-19T06:39:36;14.80;;;13.37;;
7162;SDS011;3623;47.098;15.446;2023-06-19T06:42:03;15.37;;;13.80;;
7162;SDS011;3623;47.098;15.446;2023-06-19T06:44:31;13.17;;;11.87;;
7162;SDS011;3623;47.098;15.446;2023-06-19T06:46:58;13.60;;;12.30;;
7162;SDS011;3623;47.098;15.446;2023-06-19T06:49:27;20.60;;;13.53;;
7162;SDS011;3623;47.098;15.446;2023-06-19T06:51:54;13.77;;;12.27;;
7162;SDS011;3623;47.098;15.446;2023-06-19T06:54:21;13.47;;;12.10;;
7162;SDS011;3623;47.098;15.446;2023-06-19T06:56:48;15.50;;;12.90;;
7162;SDS011;3623;47.098;15.446;2023-06-19T06:59:17;13.60;;;12.03;;
7162;SDS011;3623;47.098;15.446;2023-06-19T07:01:45;14.50;;;13.20;;
7162;SDS011;3623;47.098;15.446;2023-06-19T07:04:12;15.70;;;12.83;;
7162;SDS011;3623;47.098;15.446;2023-06-19T07:06:40;14.27;;;12.53;;
7162;SDS011;3623;47.098;15.446;2023-06-19T07:09:07;15.27;;;13.87;;
7162;SDS011;3623;47.098;15.446;2023-06-19T07:11:35;13.70;;;12.33;;
7162;SDS011;3623;47.098;15.446;2023-06-19T07:14:02;18.13;;;12.07;;
7162;SDS011;3623;47.098;15.446;2023-06-19T07:16:30;13.33;;;11.93;;
7162;SDS011;3623;47.098;15.446;2023-06-19T07:18:57;14.63;;;13.17;;
7162;SDS011;3623;47.098;15.446;2023-06-19T07:21:24;13.33;;;12.23;;
7162;SDS011;3623;47.098;15.446;2023-06-19T07:23:55;14.20;;;12.73;;
7162;SDS011;3623;47.098;15.446;2023-06-19T07:26:22;14.00;;;12.70;;
7162;SDS011;3623;47.098;15.446;2023-06-19T07:28:49;13.63;;;12.23;;
7162;SDS011;3623;47.098;15.446;2023-06-19T07:31:17;12.50;;;11.20;;
7162;SDS011;3623;47.098;15.446;2023-06-19T07:33:44;12.93;;;11.40;;
7162;SDS011;3623;47.098;15.446;2023-06-19T07:36:11;13.53;;;12.40;;
7162;SDS011;3623;47.098;15.446;2023-06-19T07:38:39;17.87;;;12.60;;
7162;SDS011;3623;47.098;15.446;2023-06-19T07:41:07;14.07;;;12.53;;
7162;SDS011;3623;47.098;15.446;2023-06-19T07:43:36;13.17;;;11.90;;
7162;SDS011;3623;47.098;15.446;2023-06-19T07:46:03;14.00;;;12.70;;
7162;SDS011;3623;47.098;15.446;2023-06-19T07:48:31;14.73;;;13.07;;
7162;SDS011;3623;47.098;15.446;2023-06-19T07:50:58;13.53;;;12.43;;
7162;SDS011;3623;47.098;15.446;2023-06-19T07:53:25;15.00;;;12.87;;
7162;SDS011;3623;47.098;15.446;2023-06-19T07:55:52;17.53;;;12.40;;
7162;SDS011;3623;47.098;15.446;2023-06-19T07:58:20;13.70;;;12.40;;
7162;SDS011;3623;47.098;15.446;2023-06-19T08:00:47;12.77;;;11.57;;
7162;SDS011;3623;47.098;15.446;2023-06-19T08:03:15;11.83;;;10.83;;
7162;SDS011;3623;47.098;15.446;2023-06-19T08:05:42;13.50;;;12.10;;
7162;SDS011;3623;47.098;15.446;2023-06-19T08:08:09;14.17;;;11.70;;
7162;SDS011;3623;47.098;15.446;2023-06-19T08:10:38;14.00;;;12.53;;
7162;SDS011;3623;47.098;15.446;2023-06-19T08:13:06;13.60;;;12.13;;
7162;SDS011;3623;47.098;15.446;2023-06-19T08:15:34;12.37;;;11.27;;
7162;SDS011;3623;47.098;15.446;2023-06-19T08:18:01;13.03;;;11.73;;
7162;SDS011;3623;47.098;15.446;2023-06-19T08:20:29;14.47;;;12.90;;
7162;SDS011;3623;47.098;15.446;2023-06-19T08:22:56;12.07;;;11.03;;
7162;SDS011;3623;47.098;15.446;2023-06-19T08:25:23;12.43;;;11.20;;
7162;SDS011;3623;47.098;15.446;2023-06-19T08:27:50;14.03;;;12.60;;
7162;SDS011;3623;47.098;15.446;2023-06-19T08:30:17;13.00;;;11.80;;
7162;SDS011;3623;47.098;15.446;2023-06-19T08:32:46;14.60;;;12.07;;
7162;SDS011;3623;47.098;15.446;2023-06-19T08:35:13;14.30;;;12.93;;
7162;SDS011;3623;47.098;15.446;2023-06-19T08:37:40;15.30;;;13.60;;
7162;SDS011;3623;47.098;15.446;2023-06-19T08:40:08;15.00;;;13.60;;
7162;SDS011;3623;47.098;15.446;2023-06-19T08:42:36;14.97;;;13.13;;
7162;SDS011;3623;47.098;15.446;2023-06-19T08:45:05;13.33;;;11.90;;
7162;SDS011;3623;47.098;15.446;2023-06-19T08:47:33;12.37;;;11.37;;
7162;SDS011;3623;47.098;15.446;2023-06-19T08:50:01;14.97;;;12.93;;
7162;SDS011;3623;47.098;15.446;2023-06-19T08:52:29;15.13;;;12.00;;
7162;SDS011;3623;47.098;15.446;2023-06-19T08:54:56;14.13;;;12.83;;
7162;SDS011;3623;47.098;15.446;2023-06-19T08:57:32;14.00;;;12.80;;
7162;SDS011;3623;47.098;15.446;2023-06-19T09:00:00;13.17;;;12.07;;
7162;SDS011;3623;47.098;15.446;2023-06-19T09:02:36;17.67;;;12.60;;
7162;SDS011;3623;47.098;15.446;2023-06-19T09:05:13;13.40;;;12.10;;
7162;SDS011;3623;47.098;15.446;2023-06-19T09:07:41;12.93;;;11.73;;
7162;SDS011;3623;47.098;15.446;2023-06-19T09:10:12;14.83;;;12.53;;
7162;SDS011;3623;47.098;15.446;2023-06-19T09:12:43;13.50;;;12.37;;
7162;SDS011;3623;47.098;15.446;2023-06-19T09:15:14;12.97;;;11.77;;
7162;SDS011;3623;47.098;15.446;2023-06-19T09:17:41;13.10;;;11.87;;
7162;SDS011;3623;47.098;15.446;2023-06-19T09:20:09;13.90;;;12.47;;
7162;SDS011;3623;47.098;15.446;2023-06-19T09:22:38;13.27;;;12.13;;
7162;SDS011;3623;47.098;15.446;2023-06-19T09:25:06;13.03;;;11.93;;
7162;SDS011;3623;47.098;15.446;2023-06-19T09:27:35;13.30;;;12.20;;
7162;SDS011;3623;47.098;15.446;2023-06-19T09:30:04;15.73;;;12.30;;
7162;SDS011;3623;47.098;15.446;2023-06-19T09:32:33;13.07;;;11.77;;
7162;SDS011;3623;47.098;15.446;2023-06-19T09:35:00;13.67;;;12.30;;
7162;SDS011;3623;47.098;15.446;2023-06-19T09:37:30;13.30;;;12.00;;
7162;SDS011;3623;47.098;15.446;2023-06-19T09:39:58;13.87;;;12.43;;
7162;SDS011;3623;47.098;15.446;2023-06-19T09:42:29;13.83;;;12.67;;
7162;SDS011;3623;47.098;15.446;2023-06-19T09:44:59;13.77;;;12.70;;
7162;SDS011;3623;47.098;15.446;2023-06-19T09:47:30;13.07;;;11.77;;
7162;SDS011;3623;47.098;15.446;2023-06-19T09:50:01;13.70;;;12.50;;
7162;SDS011;3623;47.098;15.446;2023-06-19T09:52:28;16.03;;;11.87;;
7162;SDS011;3623;47.098;15.446;2023-06-19T09:54:58;11.93;;;10.97;;
7162;SDS011;3623;47.098;15.446;2023-06-19T09:57:28;15.07;;;13.53;;
7162;SDS011;3623;47.098;15.446;2023-06-19T09:59:57;11.27;;;10.33;;
7162;SDS011;3623;47.098;15.446;2023-06-19T10:02:33;13.83;;;12.50;;
7162;SDS011;3623;47.098;15.446;2023-06-19T10:05:03;12.67;;;11.77;;
7162;SDS011;3623;47.098;15.446;2023-06-19T10:07:35;12.90;;;11.70;;
7162;SDS011;3623;47.098;15.446;2023-06-19T10:10:02;14.43;;;11.80;;
7162;SDS011;3623;47.098;15.446;2023-06-19T10:12:35;14.10;;;12.50;;
7162;SDS011;3623;47.098;15.446;2023-06-19T10:15:16;12.07;;;11.07;;
7162;SDS011;3623;47.098;15.446;2023-06-19T10:17:45;12.03;;;10.60;;
7162;SDS011;3623;47.098;15.446;2023-06-19T10:20:19;12.60;;;11.60;;
7162;SDS011;3623;47.098;15.446;2023-06-19T10:22:56;13.17;;;11.83;;
7162;SDS011;3623;47.098;15.446;2023-06-19T10:25:26;11.90;;;10.90;;
7162;SDS011;3623;47.098;15.446;2023-06-19T10:27:55;11.50;;;10.43;;
7162;SDS011;3623;47.098;15.446;2023-06-19T10:30:22;12.87;;;11.63;;
7162;SDS011;3623;47.098;15.446;2023-06-19T10:32:49;11.67;;;10.67;;
7162;SDS011;3623;47.098;15.446;2023-06-19T10:35:17;11.57;;;10.67;;
7162;SDS011;3623;47.098;15.446;2023-06-19T10:37:46;10.80;;;9.87;;
7162;SDS011;3623;47.098;15.446;2023-06-19T10:40:15;12.27;;;11.17;;
7162;SDS011;3623;47.098;15.446;2023-06-19T10:42:43;10.30;;;9.40;;
7162;SDS011;3623;47.098;15.446;2023-06-19T10:45:11;11.30;;;10.43;;
7162;SDS011;3623;47.098;15.446;2023-06-19T10:47:41;12.00;;;10.80;;
7162;SDS011;3623;47.098;15.446;2023-06-19T10:50:12;11.93;;;11.03;;
7162;SDS011;3623;47.098;15.446;2023-06-19T10:52:40;11.83;;;10.83;;
7162;SDS011;3623;47.098;15.446;2023-06-19T10:55:09;10.57;;;9.87;;
7162;SDS011;3623;47.098;15.446;2023-06-19T10:57:38;11.00;;;10.10;;
7162;SDS011;3623;47.098;15.446;2023-06-19T11:00:07;11.63;;;10.63;;
7162;SDS011;3623;47.098;15.446;2023-06-19T11:02:38;11.50;;;10.57;;
7162;SDS011;3623;47.098;15.446;2023-06-19T11:05:09;12.10;;;11.00;;
7162;SDS011;3623;47.098;15.446;2023-06-19T11:07:37;12.30;;;11.40;;
7162;SDS011;3623;47.098;15.446;2023-06-19T11:10:05;10.93;;;10.13;;
7162;SDS011;3623;47.098;15.446;2023-06-19T11:12:33;10.53;;;9.60;;
7162;SDS011;3623;47.098;15.446;2023-06-19T11:15:04;10.90;;;10.07;;
7162;SDS011;3623;47.098;15.446;2023-06-19T11:17:32;11.30;;;10.50;;
7162;SDS011;3623;47.098;15.446;2023-06-19T11:20:00;11.20;;;10.13;;
7162;SDS011;3623;47.098;15.446;2023-06-19T11:22:37;11.07;;;10.13;;
7162;SDS011;3623;47.098;15.446;2023-06-19T11:25:06;11.70;;;10.80;;
7162;SDS011;3623;47.098;15.446;2023-06-19T11:27:34;11.17;;;10.00;;
7162;SDS011;3623;47.098;15.446;2023-06-19T11:30:06;12.53;;;10.63;;
7162;SDS011;3623;47.098;15.446;2023-06-19T11:32:36;10.83;;;10.13;;
7162;SDS011;3623;47.098;15.446;2023-06-19T11:35:07;10.80;;;10.10;;
7162;SDS011;3623;47.098;15.446;2023-06-19T11:37:37;12.07;;;11.00;;
7162;SDS011;3623;47.098;15.446;2023-06-19T11:40:08;12.53;;;11.53;;
7162;SDS011;3623;47.098;15.446;2023-06-19T11:42:51;11.13;;;10.33;;
7162;SDS011;3623;47.098;15.446;2023-06-19T11:45:21;11.77;;;10.87;;
7162;SDS011;3623;47.098;15.446;2023-06-19T11:47:48;11.53;;;10.63;;
7162;SDS011;3623;47.098;15.446;2023-06-19T11:50:16;11.37;;;10.37;;
7162;SDS011;3623;47.098;15.446;2023-06-19T11:52:44;10.23;;;9.43;;
7162;SDS011;3623;47.098;15.446;2023-06-19T11:55:12;12.40;;;11.50;;
7162;SDS011;3623;47.098;15.446;2023-06-19T11:57:41;12.00;;;10.90;;
7162;SDS011;3623;47.098;15.446;2023-06-19T12:00:15;12.10;;;11.20;;
7162;SDS011;3623;47.098;15.446;2023-06-19T12:02:45;13.30;;;12.20;;
7162;SDS011;3623;47.098;15.446;2023-06-19T12:05:13;12.27;;;11.17;;
7162;SDS011;3623;47.098;15.446;2023-06-19T12:07:40;11.20;;;10.30;;
7162;SDS011;3623;47.098;15.446;2023-06-19T12:10:08;11.80;;;10.47;;
7162;SDS011;3623;47.098;15.446;2023-06-19T12:12:37;11.23;;;10.53;;
7162;SDS011;3623;47.098;15.446;2023-06-19T12:15:05;11.63;;;10.50;;
7162;SDS011;3623;47.098;15.446;2023-06-19T12:17:33;11.63;;;10.60;;
7162;SDS011;3623;47.098;15.446;2023-06-19T12:20:02;12.23;;;11.30;;
7162;SDS011;3623;47.098;15.446;2023-06-19T12:22:31;12.57;;;11.53;;
7162;SDS011;3623;47.098;15.446;2023-06-19T12:24:58;13.37;;;12.27;;
7162;SDS011;3623;47.098;15.446;2023-06-19T12:27:26;11.17;;;10.30;;
7162;SDS011;3623;47.098;15.446;2023-06-19T12:29:53;12.80;;;11.90;;
7162;SDS011;3623;47.098;15.446;2023-06-19T12:32:20;13.17;;;11.80;;
7162;SDS011;3623;47.098;15.446;2023-06-19T12:34:47;11.93;;;11.13;;
7162;SDS011;3623;47.098;15.446;2023-06-19T12:37:16;11.63;;;10.73;;
7162;SDS011;3623;47.098;15.446;2023-06-19T12:39:43;12.40;;;11.60;;
7162;SDS011;3623;47.098;15.446;2023-06-19T12:42:10;12.10;;;11.00;;
7162;SDS011;3623;47.098;15.446;2023-06-19T12:44:38;12.37;;;11.57;;
7162;SDS011;3623;47.098;15.446;2023-06-19T12:47:06;12.97;;;12.00;;
7162;SDS011;3623;47.098;15.446;2023-06-19T12:49:33;12.97;;;12.07;;
7162;SDS011;3623;47.098;15.446;2023-06-19T12:52:00;12.60;;;11.80;;
7162;SDS011;3623;47.098;15.446;2023-06-19T12:54:29;12.87;;;11.90;;
7162;SDS011;3623;47.098;15.446;2023-06-19T12:56:57;13.93;;;13.03;;
7162;SDS011;3623;47.098;15.446;2023-06-19T12:59:24;13.20;;;12.30;;
7162;SDS011;3623;47.098;15.446;2023-06-19T13:01:51;13.37;;;12.37;;
7162;SDS011;3623;47.098;15.446;2023-06-19T13:04:18;13.13;;;12.07;;
7162;SDS011;3623;47.098;15.446;2023-06-19T13:06:45;12.03;;;11.23;;
7162;SDS011;3623;47.098;15.446;2023-06-19T13:09:12;13.03;;;12.13;;
7162;SDS011;3623;47.098;15.446;2023-06-19T13:11:42;12.50;;;11.57;;
7162;SDS011;3623;47.098;15.446;2023-06-19T13:14:09;13.53;;;12.50;;
7162;SDS011;3623;47.098;15.446;2023-06-19T13:16:36;12.10;;;11.30;;
7162;SDS011;3623;47.098;15.446;2023-06-19T13:19:03;18.43;;;11.80;;
7162;SDS011;3623;47.098;15.446;2023-06-19T13:21:30;11.90;;;11.10;;
7162;SDS011;3623;47.098;15.446;2023-06-19T13:23:57;12.17;;;11.07;;
7162;SDS011;3623;47.098;15.446;2023-06-19T13:26:24;12.77;;;11.60;;
7162;SDS011;3623;47.098;15.446;2023-06-19T13:28:53;10.93;;;10.13;;
7162;SDS011;3623;47.098;15.446;2023-06-19T13:31:23;12.13;;;11.33;;
7162;SDS011;3623;47.098;15.446;2023-06-19T13:33:51;11.80;;;10.90;;
7162;SDS011;3623;47.098;15.446;2023-06-19T13:36:18;13.47;;;12.10;;
7162;SDS011;3623;47.098;15.446;2023-06-19T13:38:45;12.67;;;11.87;;
7162;SDS011;3623;47.098;15.446;2023-06-19T13:41:13;12.40;;;11.50;;
7162;SDS011;3623;47.098;15.446;2023-06-19T13:43:40;12.87;;;11.87;;
7162;SDS011;3623;47.098;15.446;2023-06-19T13:46:09;12.00;;;11.00;;
7162;SDS011;3623;47.098;15.446;2023-06-19T13:48:36;12.00;;;11.00;;
7162;SDS011;3623;47.098;15.446;2023-06-19T13:51:03;12.77;;;11.67;;
7162;SDS011;3623;47.098;15.446;2023-06-19T13:53:30;12.07;;;11.27;;
7162;SDS011;3623;47.098;15.446;2023-06-19T13:55:58;12.47;;;11.40;;
7162;SDS011;3623;47.098;15.446;2023-06-19T13:58:25;13.03;;;12.03;;
7162;SDS011;3623;47.098;15.446;2023-06-19T14:00:52;11.60;;;10.70;;
7162;SDS011;3623;47.098;15.446;2023-06-19T14:03:21;10.93;;;10.23;;
7162;SDS011;3623;47.098;15.446;2023-06-19T14:05:49;11.73;;;10.60;;
7162;SDS011;3623;47.098;15.446;2023-06-19T14:08:16;10.70;;;10.00;;
7162;SDS011;3623;47.098;15.446;2023-06-19T14:10:43;11.17;;;10.37;;
7162;SDS011;3623;47.098;15.446;2023-06-19T14:13:10;10.83;;;10.07;;
7162;SDS011;3623;47.098;15.446;2023-06-19T14:15:38;11.93;;;10.83;;
7162;SDS011;3623;47.098;15.446;2023-06-19T14:18:05;10.73;;;10.10;;
7162;SDS011;3623;47.098;15.446;2023-06-19T14:20:33;12.07;;;11.07;;
7162;SDS011;3623;47.098;15.446;2023-06-19T14:23:00;11.33;;;10.63;;
7162;SDS011;3623;47.098;15.446;2023-06-19T14:25:28;12.20;;;11.00;;
7162;SDS011;3623;47.098;15.446;2023-06-19T14:27:55;11.67;;;10.87;;
7162;SDS011;3623;47.098;15.446;2023-06-19T14:30:22;12.43;;;11.53;;
7162;SDS011;3623;47.098;15.446;2023-06-19T14:32:49;11.10;;;10.30;;
7162;SDS011;3623;47.098;15.446;2023-06-19T14:35:16;12.47;;;11.47;;
7162;SDS011;3623;47.098;15.446;2023-06-19T14:37:45;10.33;;;9.67;;
7162;SDS011;3623;47.098;15.446;2023-06-19T14:40:12;10.40;;;9.40;;